createdAt,value
2018-08-20T04:02:58.424Z,9.50
2018-08-20T04:13:01.709Z,9.47
2018-08-20T04:23:05.545Z,9.90
2018-08-20T04:33:10.074Z,10.20
2018-08-20T04:43:13.409Z,11.30
2018-08-20T04:53:21.868Z,11.70
2018-08-20T05:03:25.213Z,10.90
2018-08-20T05:13:29.636Z,12.00
2018-08-20T05:23:33.487Z,11.40
2018-08-20T05:33:38.010Z,12.40
2018-08-20T05:43:41.039Z,11.60
2018-08-20T05:53:49.320Z,11.90
2018-08-20T06:03:53.039Z,11.87
2018-08-20T06:13:59.057Z,11.63
2018-08-20T06:24:01.984Z,12.03
2018-08-20T06:44:33.096Z,12.63
2018-08-20T06:54:40.990Z,11.27
2018-08-20T07:04:43.595Z,10.33
2018-08-20T07:14:47.175Z,10.37
2018-08-20T07:25:01.755Z,9.20
2018-08-20T07:35:04.923Z,9.57
2018-08-20T07:45:11.295Z,9.23
2018-08-20T08:05:50.611Z,8.80
2018-08-20T08:26:32.148Z,7.57
2018-08-20T08:36:34.820Z,7.50
2018-08-20T08:46:40.258Z,7.60
2018-08-20T08:56:50.524Z,7.27
2018-08-20T09:06:57.072Z,6.97
2018-08-20T09:17:08.347Z,7.60
2018-08-20T09:27:14.725Z,7.90
2018-08-20T09:37:17.639Z,7.50
2018-08-20T09:47:22.130Z,7.27
2018-08-20T09:57:25.579Z,7.70
2018-08-20T10:07:47.866Z,7.13
2018-08-20T10:17:51.659Z,8.17
2018-08-20T10:27:54.627Z,7.50
2018-08-20T10:38:15.729Z,7.60
2018-08-20T10:48:19.411Z,8.37
2018-08-20T10:58:25.590Z,6.23
2018-08-20T11:19:00.370Z,6.97
2018-08-20T11:29:03.960Z,6.60
2018-08-20T11:39:10.104Z,9.60
2018-08-20T11:49:13.295Z,6.57
2018-08-20T11:59:20.463Z,7.70
2018-08-20T12:09:24.369Z,6.23
2018-08-20T12:19:27.400Z,7.90
2018-08-20T12:29:30.378Z,6.23
2018-08-20T12:39:33.153Z,6.43
2018-08-20T12:49:52.147Z,6.43
2018-08-20T12:59:56.968Z,6.53
2018-08-20T13:10:05.620Z,6.40
2018-08-20T13:20:08.322Z,7.37
2018-08-20T13:30:10.927Z,6.80
2018-08-20T13:40:21.671Z,6.67
2018-08-20T13:50:25.460Z,6.50
2018-08-20T14:10:56.235Z,6.93
2018-08-20T14:21:07.788Z,7.20
2018-08-20T14:31:17.079Z,7.37
2018-08-20T14:41:32.552Z,5.93
2018-08-20T14:51:36.275Z,6.43
2018-08-20T15:01:39.545Z,6.83
2018-08-20T15:11:42.284Z,5.70
2018-08-20T15:21:49.046Z,6.60
2018-08-20T15:31:58.635Z,5.30
2018-08-20T15:42:02.534Z,5.57
2018-08-20T15:52:20.593Z,4.90
2018-08-20T16:02:23.235Z,4.60
2018-08-20T16:12:31.823Z,5.30
2018-08-20T16:22:40.467Z,5.20
2018-08-20T16:32:43.175Z,5.20
2018-08-20T16:42:48.291Z,4.03
2018-08-20T16:53:03.202Z,4.23
2018-08-20T17:03:10.447Z,4.07
2018-08-20T17:13:17.509Z,4.30
2018-08-20T17:23:22.672Z,4.53
2018-08-20T17:33:30.047Z,5.00
2018-08-20T17:43:32.601Z,5.30
2018-08-20T17:53:46.568Z,5.70
2018-08-20T18:03:54.168Z,5.43
2018-08-20T18:14:03.714Z,5.57
2018-08-20T18:24:10.646Z,6.47
2018-08-20T18:34:13.282Z,6.20
2018-08-20T18:44:17.283Z,6.00
2018-08-20T18:54:35.508Z,5.80
2018-08-20T19:04:46.725Z,5.50
2018-08-20T19:15:01.787Z,6.63
2018-08-20T19:25:12.387Z,6.67
2018-08-20T19:35:20.831Z,7.07
2018-08-20T19:45:46.576Z,6.30
2018-08-20T19:55:49.515Z,5.70
2018-08-20T20:05:52.063Z,5.77
2018-08-20T20:16:13.178Z,6.07
2018-08-20T20:26:15.927Z,5.33
2018-08-20T20:36:27.794Z,5.70
2018-08-20T20:46:30.290Z,5.80
2018-08-20T20:56:32.871Z,7.43
2018-08-20T21:06:41.095Z,5.83
2018-08-20T21:16:46.950Z,5.80
2018-08-20T21:26:49.640Z,5.43
2018-08-20T21:36:53.225Z,5.50
2018-08-20T21:46:58.252Z,5.70
2018-08-20T21:57:01.881Z,6.33
2018-08-20T22:07:04.482Z,6.97
2018-08-20T22:17:23.402Z,7.40
2018-08-20T22:27:46.038Z,6.47
2018-08-20T22:37:53.553Z,6.83
2018-08-20T22:47:56.095Z,7.53
2018-08-20T23:18:57.559Z,7.80
2018-08-20T23:29:00.083Z,7.67
2018-08-20T23:39:02.952Z,8.47
2018-08-20T23:49:05.510Z,8.93
2018-08-20T23:59:11.724Z,8.90
